To NAV CANADA Home Page Login to a new session Search on AWWS site Feedback and Comments Disclaimer Vers la page française équivalente Tips FAQ What's new on the site To the Forecasts and Observations / NOTAM section To "File a Flight Plan" website Publications and other links Update of the User's profile FIC Telephone Numbers My Weather Data Folder Route Weather Data Regional Weather Data Local Weather Data To the Forecasts and Observations / NOTAM section
Request Generated 05/26/2016 at 02:36:16 UTC . Weather information available at that time is displayed.

METAR/TAF

TORONTO/LESTER B. PEARSON INTL/ON    

METAR CYYZ 260200Z 36006KT 15SM FEW070 BKN250 23/14 A3004 RMK AC1CI5
SLP172 DENSITY ALT 1400FT=
METAR CYYZ 260100Z 36008KT 15SM SCT070 OVC250 24/14 A3003 RMK AC4CI4
SLP168 DENSITY ALT 1600FT=
METAR CYYZ 260000Z 01011KT 15SM FEW075TCU SCT090 BKN230 26/14 A3001
RMK TCU2AC2CI2 TCU N-S SLP163 DENSITY ALT 1800FT=

TAF CYYZ 252344Z 2600/2706 27012G22KT P6SM SCT070
BECMG 2600/2602 22008KT
FM260600 VRB03KT P6SM BKN080
FM261400 17010KT P6SM -SHRA BKN060
FM262000 20012G22KT P6SM -SHRA BKN040 PROB30 2620/2703 VRB20G30KT
1SM +TSRA BR BKN020 BKN040CB
FM270400 22008KT P6SM SCT050
RMK NXT FCST BY 260300Z=
Your time UTC time
Weather data provided by Environment Canada and NAV CANADA